YPPD/PHE METAR and TAF weather

Enter ICAO airport designator
Station Type Date Time Source
YPPD METAR 2021/09/25 12:30 UTC NOAA

YPPD 251230Z AUTO 30007KT 9999 // NCD 23/17 Q1011 RF00.0/000.0


Station Type Date Time Source
YPPD Decoded METAR 2021/09/25 12:30 UTC NOAA

Port Hedland Pardoo, Australia (YPPD) 20-06S 119-34E 10M
Sep 25, 2021 - 08:30 AM EDT / 2021.09.25 1230 UTC
Wind: from the WNW (300 degrees) at 8 MPH (7 KT):0
Visibility: greater than 7 mile(s):0
Temperature: 73 F (23 C)
Dew Point: 62 F (17 C)
Relative Humidity: 68%
Pressure (altimeter): 29.85 in. Hg (1011 hPa)
ob: YPPD 251230Z AUTO 30007KT 9999 // NCD 23/17 Q1011 RF00.0/000.0
cycle: 12

Station Type Date Time Source
YPPD TAF 2021/09/25 12:36 UTC NOAA

TAF YPPD 251101Z 2512/2612 30009KT CAVOK
FM251400 26008KT CAVOK
FM252000 22006KT CAVOK
FM260300 25013KT CAVOK
FM260600 30019KT CAVOK

Example: see airport list